TimeEDT,TemperatureF,Dew PointF,Humidity,Sea Level PressureIn,VisibilityMPH,Wind Direction,Wind SpeedMPH,Gust SpeedMPH,PrecipitationIn,Events,Conditions,WindDirDegrees,DateUTC
12:15 AM,39.6,32.2,75,30.24,10.0,NE,9.2,-,N/A,,Clear,40,2012-10-28 04:15:00
12:35 AM,39.2,32.0,75,30.24,10.0,NE,10.4,-,N/A,,Clear,50,2012-10-28 04:35:00
12:55 AM,39.2,32.0,75,30.25,10.0,NE,10.4,-,N/A,,Clear,40,2012-10-28 04:55:00
1:15 AM,39.0,32.2,76,30.25,10.0,NE,10.4,-,N/A,,Clear,50,2012-10-28 05:15:00
1:35 AM,38.8,32.0,76,30.25,10.0,NE,8.1,-,N/A,,Scattered Clouds,50,2012-10-28 05:35:00
2:15 AM,38.7,32.0,77,30.25,10.0,NE,10.4,-,N/A,,Mostly Cloudy,50,2012-10-28 06:15:00
2:35 AM,38.7,32.0,77,30.24,10.0,NE,9.2,-,N/A,,Overcast,50,2012-10-28 06:35:00
2:55 AM,38.7,32.0,77,30.25,10.0,NE,10.4,-,N/A,,Overcast,50,2012-10-28 06:55:00
3:14 AM,38.7,32.0,77,30.25,10.0,NE,11.5,-,N/A,,Overcast,50,2012-10-28 07:14:00
3:35 AM,38.3,31.8,77,30.24,10.0,NE,10.4,-,N/A,,Mostly Cloudy,50,2012-10-28 07:35:00
3:55 AM,37.9,31.6,78,30.24,10.0,NE,9.2,-,N/A,,Scattered Clouds,40,2012-10-28 07:55:00
4:15 AM,37.6,31.3,78,30.24,10.0,NE,9.2,-,N/A,,Scattered Clouds,50,2012-10-28 08:15:00
4:35 AM,37.4,31.1,78,30.24,10.0,ENE,8.1,-,N/A,,Scattered Clouds,60,2012-10-28 08:35:00
4:55 AM,36.9,31.1,80,30.24,10.0,NE,8.1,-,N/A,,Scattered Clouds,50,2012-10-28 08:55:00
5:15 AM,36.3,30.9,81,30.25,10.0,NE,6.9,-,N/A,,Clear,50,2012-10-28 09:15:00
5:35 AM,35.8,30.7,82,30.26,10.0,ENE,4.6,-,N/A,,Clear,60,2012-10-28 09:35:00
5:54 AM,35.1,30.6,84,30.26,10.0,Calm,Calm,-,N/A,,Clear,0,2012-10-28 09:54:00
6:15 AM,32.9,30.4,90,30.27,10.0,NE,3.5,-,N/A,,Clear,40,2012-10-28 10:15:00
6:35 AM,33.1,30.4,90,30.27,10.0,NE,4.6,-,N/A,,Clear,40,2012-10-28 10:35:00
6:55 AM,32.7,30.2,90,30.27,10.0,NE,4.6,-,N/A,,Scattered Clouds,40,2012-10-28 10:55:00
7:15 AM,34.2,30.7,87,30.26,10.0,NE,5.8,-,N/A,,Clear,40,2012-10-28 11:15:00
7:35 AM,34.3,30.2,85,30.27,10.0,NE,3.5,-,N/A,,Scattered Clouds,50,2012-10-28 11:35:00
7:55 AM,34.3,30.2,85,30.27,10.0,NE,5.8,-,N/A,,Mostly Cloudy,50,2012-10-28 11:55:00
8:15 AM,32.9,30.0,89,30.27,10.0,NE,4.6,-,N/A,,Scattered Clouds,40,2012-10-28 12:15:00
8:34 AM,33.8,30.0,86,30.27,10.0,NNE,4.6,-,N/A,,Clear,30,2012-10-28 12:34:00
8:55 AM,34.9,30.0,82,30.27,10.0,NE,5.8,-,N/A,,Clear,40,2012-10-28 12:55:00
9:14 AM,36.5,30.6,79,30.27,10.0,NNE,8.1,-,N/A,,Clear,30,2012-10-28 13:14:00
9:35 AM,38.8,30.2,71,30.27,10.0,NE,11.5,17.3,N/A,,Clear,40,2012-10-28 13:35:00
9:55 AM,39.7,30.4,69,30.27,10.0,NNE,11.5,18.4,N/A,,Clear,30,2012-10-28 13:55:00
10:15 AM,40.5,30.6,68,30.27,10.0,NNE,11.5,-,N/A,,Clear,30,2012-10-28 14:15:00
10:35 AM,42.1,31.1,65,30.26,10.0,NNE,15.0,18.4,N/A,,Clear,20,2012-10-28 14:35:00
11:15 AM,43.5,31.1,62,30.26,10.0,NE,10.4,-,N/A,,Clear,50,2012-10-28 15:15:00
11:34 AM,43.9,30.6,59,30.26,10.0,NNE,10.4,18.4,N/A,,Clear,20,2012-10-28 15:34:00
11:55 AM,45.3,30.7,57,30.26,10.0,NE,16.1,20.7,N/A,,Clear,40,2012-10-28 15:55:00
12:15 PM,45.7,29.7,54,30.25,10.0,NE,15.0,18.4,N/A,,Clear,50,2012-10-28 16:15:00
12:35 PM,46.9,29.5,51,30.25,10.0,NE,12.7,19.6,N/A,,Clear,40,2012-10-28 16:35:00
12:55 PM,47.3,28.8,49,30.24,10.0,NNE,10.4,17.3,N/A,,Clear,30,2012-10-28 16:55:00
1:15 PM,47.7,28.8,48,30.24,10.0,NE,11.5,18.4,N/A,,Scattered Clouds,50,2012-10-28 17:15:00
1:35 PM,48.7,29.8,48,30.23,10.0,North,11.5,17.3,N/A,,Mostly Cloudy,10,2012-10-28 17:35:00
1:55 PM,48.6,30.0,49,30.22,10.0,NNE,10.4,18.4,N/A,,Overcast,30,2012-10-28 17:55:00
2:14 PM,48.4,28.9,47,30.22,10.0,NNE,15.0,-,N/A,,Mostly Cloudy,20,2012-10-28 18:14:00
2:35 PM,47.7,29.5,49,30.22,10.0,NNE,6.9,17.3,N/A,,Mostly Cloudy,30,2012-10-28 18:35:00
2:55 PM,48.7,28.6,46,30.21,10.0,NNE,11.5,18.4,N/A,,Scattered Clouds,20,2012-10-28 18:55:00
3:15 PM,50.2,28.9,44,30.20,10.0,NNE,11.5,16.1,N/A,,Scattered Clouds,30,2012-10-28 19:15:00
3:35 PM,49.3,29.1,46,30.20,10.0,North,10.4,17.3,N/A,,Scattered Clouds,10,2012-10-28 19:35:00
3:55 PM,48.9,28.9,46,30.20,10.0,NNE,10.4,18.4,N/A,,Scattered Clouds,30,2012-10-28 19:55:00
4:15 PM,50.0,27.5,42,30.20,10.0,NNE,10.4,21.9,N/A,,Scattered Clouds,20,2012-10-28 20:15:00
4:35 PM,49.5,27.3,42,30.20,10.0,North,11.5,-,N/A,,Scattered Clouds,10,2012-10-28 20:35:00
4:55 PM,49.3,27.0,42,30.19,10.0,NE,11.5,18.4,N/A,,Scattered Clouds,40,2012-10-28 20:55:00
5:15 PM,49.3,26.6,41,30.19,10.0,North,11.5,16.1,N/A,,Scattered Clouds,10,2012-10-28 21:15:00
5:34 PM,49.5,25.3,39,30.20,10.0,NNE,8.1,-,N/A,,Scattered Clouds,30,2012-10-28 21:34:00
5:55 PM,48.6,26.1,42,30.20,10.0,NNE,9.2,16.1,N/A,,Mostly Cloudy,20,2012-10-28 21:55:00
6:15 PM,48.2,26.2,42,30.20,10.0,North,9.2,-,N/A,,Mostly Cloudy,10,2012-10-28 22:15:00
6:35 PM,47.5,25.5,42,30.20,10.0,North,11.5,-,N/A,,Mostly Cloudy,10,2012-10-28 22:35:00
6:55 PM,46.4,24.8,43,30.21,10.0,NNE,6.9,-,N/A,,Scattered Clouds,20,2012-10-28 22:55:00
7:15 PM,45.3,25.0,45,30.21,10.0,NNE,5.8,-,N/A,,Clear,20,2012-10-28 23:15:00
7:34 PM,44.8,25.2,46,30.21,10.0,NNE,5.8,-,N/A,,Clear,20,2012-10-28 23:34:00
7:55 PM,43.3,26.1,51,30.22,10.0,NNE,4.6,-,N/A,,Clear,20,2012-10-28 23:55:00
8:15 PM,43.5,25.5,49,30.22,10.0,North,3.5,-,N/A,,Clear,10,2012-10-29 00:15:00
8:35 PM,43.7,25.0,48,30.22,10.0,North,4.6,-,N/A,,Clear,10,2012-10-29 00:35:00
9:15 PM,43.9,25.3,48,30.21,10.0,North,5.8,-,N/A,,Clear,10,2012-10-29 01:15:00
9:35 PM,44.2,25.7,48,30.21,10.0,North,9.2,-,N/A,,Clear,10,2012-10-29 01:35:00
9:55 PM,44.1,25.9,49,30.22,10.0,NNE,9.2,-,N/A,,Clear,20,2012-10-29 01:55:00
10:14 PM,43.9,25.9,49,30.22,10.0,NNE,9.2,-,N/A,,Clear,20,2012-10-29 02:14:00
10:35 PM,43.5,26.2,51,30.22,10.0,NNE,11.5,18.4,N/A,,Clear,20,2012-10-29 02:35:00
10:55 PM,43.0,27.1,54,30.22,10.0,NNE,10.4,17.3,N/A,,Clear,20,2012-10-29 02:55:00
11:15 PM,42.8,28.0,56,30.22,10.0,NNE,11.5,19.6,N/A,,Clear,20,2012-10-29 03:15:00
11:35 PM,42.1,28.6,59,30.22,10.0,NNE,10.4,16.1,N/A,,Clear,20,2012-10-29 03:35:00
11:55 PM,41.9,29.3,61,30.22,10.0,NNE,9.2,-,N/A,,Clear,20,2012-10-29 03:55:00